Arch, NM

3:50 AM MDT on October 23, 2014 (GMT -0600)
Clovis Municipal | Change Station
CLOSE
Current Station
Airport
Location: Clovis,
Elevation: 4216 ft
Nearby Weather Stations

Elev 4216 ft 34.43 °N, 103.08 °W | Updated 15 minutes ago

Overcast
Overcast
57 °F
Feels Like 57 °F
N
7
Wind Variable Wind from SSW

Today
High -- | Low -- °F
--% Chance of Precip.
Yesterday
High -- | Low -- °F
Precip. -- in
7:05 AM 6:09 PM
Waning Crescent, 0% visible
Pressure 30.16 in
Visibility 7.0 miles
Clouds Overcast 300 ft
Dew Point 55 °F
Humidity 94%
Rainfall 0.00 in
Snow Depth Not available.
UV 0 out of 12
Pollen 4.10 out of 12
Air Quality Not available.
Flu Activity Sporadic
METAR KCVN 230935Z AUTO 21006KT 7SM OVC003 14/13 A3016 RMK AO1

More Conditions Fewer Conditions

Pressure 30.16 in
Visibility 7.0 miles
Clouds Overcast 300 ft
Dew Point 55 °F
Humidity 94%
Rainfall 0.00 in
Snow Depth Not available.
UV 0 out of 12
Pollen 4.10 out of 12
Air Quality Not available.
Flu Activity Sporadic
METAR KCVN 230935Z AUTO 21006KT 7SM OVC003 14/13 A3016 RMK AO1

More Conditions Fewer Conditions

Nowcast | as of 2:48 am MDT on October 23, 2014

Fog will continue to develop over east central and southeast New Mexico through the overnight hours. Initially...areas impacted will be along the Texas border and in the Pecos River valley...but the fog will become more widespread toward the early morning hours. Visibilities may drop below one quarter mile at times...creating dangerous driving conditions. Areas that may be affected through 5 am include Roswell...Dexter...Clovis...Portales...Milnesand...Elida and Melrose. If travelling in these areas...use caution.

×

10-Day Weather Forecast

Almanac

Astronomy

Oct. 23, 2014 Rise Set
Actual Time 7:05 AM MDT 6:09 PM MDT
Civil Twilight 6:39 AM MDT 6:35 PM MDT
Nautical Twilight 6:10 AM MDT 7:04 PM MDT
Astronomical Twilight 5:41 AM MDT 7:33 PM MDT
Moon 6:47 AM MDT 6:12 PM MDT
Length of Visible Light 11h 55m
Length of Day
11h 04m
Tomorrow will be 1m 59s shorter.
Waning Crescent, 0% of the Moon is Illuminated
Today
Waning Crescent
Oct 23
New
Oct 30
First Quarter
Nov 6
Full
Nov 14
Last Quarter

Today's Extremes

State Highs State Lows

Community

WunderPhotos

Upload Photos

1,764,199 photos uploaded!

Nearby

Snow Depth

Station Depth Elevation
Sierra Blanca 0 in 10280 ft
Wesner Springs 3 in 11120 ft
Elk Cabin 1 in 8210 ft
Gallegos Peak 0 in 9800 ft
Tolby 0 in 10180 ft

Earthquake Activity

City Distance Mag. Time & Date
No recent earthquake activity has been reported nearby.
Minimum magnitude displayed is 2.5.

Coastal Water Temperatures

Place Temperature
No Stations Reporting

Nearby Weather Stations